Flight Track Log - Related Links

Times and Time Zones

All times are in EDT time to prevent confusion due to time zone crossing. See the CHB6277 flight status page for this flight to view local times or setup timezone preferences in your user account.

Time Position Orientation Groundspeed Altitude Reporting Facility
EDT Latitude Longitude Course Direction KTS MPH feet Rate Location/Type
Tue 09:54:00 AM 29.4093 106.8865 145° Southeast  Level Estimated
Tue 09:55:00 AM 29.3472 106.9354 146° Southeast  Level Estimated
Tue 09:56:00 AM 29.2851 106.9843 146° Southeast  Level Estimated
Tue 09:57:00 AM 29.2230 107.0331 146° Southeast  Level Estimated
Tue 09:58:00 AM 29.1609 107.0818 146° Southeast  Level Estimated
Tue 09:59:00 AM 29.0987 107.1305 146° Southeast  Level Estimated
Tue 10:00:00 AM 29.0366 107.1792 146° Southeast  Level Estimated
Tue 10:01:00 AM 28.9744 107.2277 146° Southeast  Level Estimated
Tue 10:02:00 AM 28.9122 107.2762 146° Southeast  Level Estimated
Tue 10:03:00 AM 28.8500 107.3247 146° Southeast  Level Estimated
Tue 10:04:00 AM 28.7878 107.3731 146° Southeast  Level Estimated
Tue 10:05:00 AM 28.7255 107.4214 146° Southeast  Level Estimated
Tue 10:06:00 AM 28.6633 107.4697 146° Southeast  Level Estimated
Tue 10:07:00 AM 28.6010 107.5179 146° Southeast  Level Estimated
Tue 10:08:00 AM 28.5387 107.5661 146° Southeast  Level Estimated
Tue 10:09:00 AM 28.4764 107.6142 146° Southeast  Level Estimated
Tue 10:10:00 AM 28.4140 107.6622 146° Southeast  Level Estimated
Tue 10:11:00 AM 28.3517 107.7102 146° Southeast  Level Estimated
Tue 10:12:00 AM 28.2893 107.7582 146° Southeast  Level Estimated
Tue 10:13:00 AM 28.2269 107.8061 146° Southeast  Level Estimated
Tue 10:14:00 AM 28.1646 107.8539 146° Southeast  Level Estimated
Tue 10:15:00 AM 28.1021 107.9016 146° Southeast  Level Estimated
Tue 10:16:00 AM 28.0397 107.9493 146° Southeast  Level Estimated
Tue 10:17:00 AM 27.9773 107.9970 146° Southeast  Level Estimated
Tue 10:18:00 AM 27.9148 108.0446 146° Southeast  Level Estimated
Tue 10:19:00 AM 27.8523 108.0922 146° Southeast  Level Estimated
Tue 10:20:00 AM 27.7898 108.1396 146° Southeast  Level Estimated
Tue 10:21:00 AM 27.7273 108.1871 146° Southeast  Level Estimated
Tue 10:22:00 AM 27.6648 108.2345 146° Southeast  Level Estimated
Tue 10:23:00 AM 27.6022 108.2818 146° Southeast  Level Estimated
Tue 10:24:00 AM 27.5397 108.3291 146° Southeast  Level Estimated
Tue 10:25:00 AM 27.4771 108.3763 146° Southeast  Level Estimated
Tue 10:26:00 AM 27.4145 108.4235 146° Southeast  Level Estimated
Tue 10:27:00 AM 27.3519 108.4706 146° Southeast  Level Estimated
Tue 10:28:00 AM 27.2893 108.5176 146° Southeast  Level Estimated
Tue 10:29:00 AM 27.2266 108.5647 146° Southeast  Level Estimated
Tue 10:30:00 AM 27.1640 108.6116 146° Southeast  Level Estimated
Tue 10:31:00 AM 27.1013 108.6585 146° Southeast  Level Estimated
Tue 10:32:00 AM 27.0386 108.7054 146° Southeast  Level Estimated
Tue 10:33:00 AM 26.9759 108.7522 146° Southeast  Level Estimated
Tue 10:34:00 AM 26.9132 108.7989 146° Southeast  Level Estimated
Tue 10:35:00 AM 26.8505 108.8456 146° Southeast  Level Estimated
Tue 10:36:00 AM 26.7877 108.8923 146° Southeast  Level Estimated
Tue 10:37:00 AM 26.7249 108.9388 146° Southeast  Level Estimated
Tue 10:38:00 AM 26.6622 108.9854 146° Southeast  Level Estimated
Tue 10:39:00 AM 26.5994 109.0319 146° Southeast  Level Estimated
Tue 10:40:00 AM 26.5366 109.0783 147° Southeast  Level Estimated
Tue 10:41:00 AM 26.4737 109.1247 147° Southeast  Level Estimated
Tue 10:42:00 AM 26.4109 109.1710 147° Southeast  Level Estimated
Tue 10:43:00 AM 26.3480 109.2173 147° Southeast  Level Estimated
Tue 10:44:00 AM 26.2852 109.2635 147° Southeast  Level Estimated
Tue 10:45:00 AM 26.2223 109.3097 147° Southeast  Level Estimated
Tue 10:46:00 AM 26.1594 109.3559 147° Southeast  Level Estimated
Tue 10:47:00 AM 26.0965 109.4020 147° Southeast  Level Estimated
Tue 10:48:00 AM 26.0335 109.4480 147° Southeast  Level Estimated
Tue 10:49:00 AM 25.9706 109.4940 147° Southeast  Level Estimated
Tue 10:50:00 AM 25.9076 109.5399 147° Southeast  Level Estimated
Tue 10:51:00 AM 25.8447 109.5858 147° Southeast  Level Estimated
Tue 10:52:00 AM 25.7817 109.6317 147° Southeast  Level Estimated
Tue 10:53:00 AM 25.7187 109.6774 147° Southeast  Level Estimated
Tue 10:54:00 AM 25.6557 109.7232 147° Southeast  Level Estimated
Tue 10:55:00 AM 25.5926 109.7689 147° Southeast  Level Estimated
Tue 10:56:00 AM 25.5296 109.8145 147° Southeast  Level Estimated
Tue 10:57:00 AM 25.4665 109.8601 147° Southeast  Level Estimated
Tue 10:58:00 AM 25.4035 109.9057 147° Southeast  Level Estimated
Tue 10:59:00 AM 25.3404 109.9512 147° Southeast  Level Estimated
Tue 11:00:00 AM 25.2773 109.9966 147° Southeast  Level Estimated
Tue 11:01:00 AM 25.2181 110.0392 147° Southeast  Level Estimated
Tue 11:02:00 AM 25.2181 110.0392 North  Level Estimated
Tue 11:03:00 AM 25.2181 110.0392 North  Level Estimated
Tue 11:04:00 AM 25.2181 110.0392 North  Level Estimated
Tue 11:05:00 AM 25.2181 110.0392 North  Level Estimated
Tue 11:06:00 AM 25.2181 110.0392 North  Level Estimated
Tue 11:07:00 AM 25.2181 110.0392 North  Level Estimated
Tue 11:08:00 AM 25.2181 110.0392 North  Level Estimated
Tue 11:09:00 AM 25.2181 110.0392 North  Level Estimated
Tue 11:10:00 AM 25.2181 110.0392 North  Level Estimated
Tue 11:11:00 AM 25.2181 110.0392 North  Level Estimated
Tue 11:12:00 AM 25.2181 110.0392 North  Level Estimated
Tue 11:13:00 AM 25.2181 110.0392 North  Level Estimated
Tue 11:14:00 AM 25.2181 110.0392 North  Level Estimated
Tue 11:15:00 AM 25.2181 110.0392 North  Level Estimated
Tue 11:16:00 AM 25.2181 110.0392 North  Level Estimated
Tue 11:17:00 AM 25.2181 110.0392 North  Level Estimated

Login

Don't have an account? Register now (free) for customized features, flight alerts, and more!